This is the latest recevied weather packets stored in our database for station/object KC1OEK-13. If no packets are shown the sender has not sent any weather packets the latest 10 day(s).
| Time | Temp. | Humidity | Pressure | Rain* | Wind** | Luminosity | Snow |
|---|---|---|---|---|---|---|---|
| 1778232226 | 5.56° C | 84% | 1012.3 hPa | 0 mm | - | 0 W/m² | - |
| 1778231924 | 6.11° C | 79% | 1012.2 hPa | 0 mm | - | 0 W/m² | - |
| 1778231620 | 5.56° C | 81% | 1012.4 hPa | 0 mm | - | 0 W/m² | - |
| 1778231319 | 5° C | 90% | 1012.3 hPa | 0 mm | - | 0 W/m² | - |
| 1778231017 | 5° C | 92% | 1012.5 hPa | 0 mm | - | 0 W/m² | - |
| 1778230712 | 5° C | 92% | 1012.2 hPa | 0 mm | - | 0 W/m² | - |
| 1778230409 | 5° C | 91% | 1012.1 hPa | 0 mm | - | 0 W/m² | - |
| 1778230106 | 5.56° C | 90% | 1012.3 hPa | 0 mm | - | 0 W/m² | - |
| 1778229803 | 5° C | 90% | 1012.2 hPa | 0 mm | - | 0 W/m² | - |
| 1778229500 | 5° C | 93% | 1012.3 hPa | 0 mm | - | 0 W/m² | - |
| 1778229198 | 4.44° C | 93% | 1012.4 hPa | 0 mm | - | 0 W/m² | - |
| 1778228897 | 4.44° C | 93% | 1012.1 hPa | 0 mm | - | 0 W/m² | - |
| 1778228595 | 4.44° C | 93% | 1012.2 hPa | 0 mm | - | 0 W/m² | - |
| 1778228292 | 4.44° C | 93% | 1012.2 hPa | 0 mm | - | 0 W/m² | - |
| 1778227989 | 4.44° C | 93% | 1012.4 hPa | 0 mm | - | 0 W/m² | - |
| 1778227686 | 4.44° C | 93% | 1012.5 hPa | 0 mm | - | 0 W/m² | - |
| 1778227384 | 4.44° C | 93% | 1012.5 hPa | 0 mm | - | 0 W/m² | - |
| 1778227080 | 4.44° C | 94% | 1012.5 hPa | 0 mm | - | 0 W/m² | - |
| 1778226777 | 4.44° C | 94% | 1012.4 hPa | 0 mm | - | 0 W/m² | - |
| 1778226475 | 4.44° C | 94% | 1012.4 hPa | 0 mm | - | 0 W/m² | - |
| 1778226172 | 3.89° C | 94% | 1012.3 hPa | 0 mm | - | 0 W/m² | - |
| 1778225869 | 3.89° C | 94% | 1012.3 hPa | 0 mm | - | 0 W/m² | - |
| 1778225567 | 3.89° C | 94% | 1012.2 hPa | 0 mm | - | 0 W/m² | - |
| 1778225263 | 3.89° C | 93% | 1012 hPa | 0 mm | - | 0 W/m² | - |
| 1778224960 | 3.89° C | 93% | 1012.1 hPa | 0 mm | - | 0 W/m² | - |
* Rain latest hour (hover to see other rain measurements)
** Current wind speed in m/s (hover to see current wind gust speed)